Nearby METAR Reports


NZWN - Wellington Intl, New Zealand
Distance from station: SSW 357km
Updated: 26/06/2017 22:00
Partly Cloudy
Partly Cloudy
 Wind from NNE
Wind: NNE 9 km/h
Temperature: 6°C
Wind Chill: 4°C
Dew Point: 6°C
Humidity: 100%
Barometer: 1017 hPa
Clouds: Partly Cloudy
Visibility: 10 km
Cloud details: Partly Cloudy 701 m
Partly Cloudy 1433 m
2017/06/26 10:00 NZWN 261000Z AUTO 03005KT 9999 SCT023/// SCT047/// 06/06 Q1017 NOSIG
NZAA - Auckland Intl Ar, New Zealand
Distance from station: NW 162km
Updated: 26/06/2017 22:00
Partly Cloudy
Partly Cloudy
 Wind from SE
Wind: SE 7 km/h
Temperature: 9°C
Wind Chill: 8°C
Dew Point: 6°C
Humidity: 82%
Barometer: 1016 hPa
Clouds: Partly Cloudy
Visibility: 10 km
Cloud details: Partly Cloudy 1433 m
2017/06/26 10:00 NZAA 261000Z AUTO 14004KT 120V200 9999 SCT047/// 09/06 Q1016 NOSIG
 
NZCH - Christchurch Int, New Zealand
Distance from station: SSW 647km
Updated: 26/06/2017 22:00
Clear
Clear
 Wind from NE
Wind: NE 9 km/h
Temperature: 2°C
Wind Chill: -1°C
Dew Point: 1°C
Humidity: 93%
Barometer: 1014 hPa
Clouds: Clear
Visibility: 10 km
2017/06/26 10:00 NZCH 261000Z AUTO 05005KT 9999 NCD 02/01 Q1014 NOSIG
YSNF - Norfolk Island A, Australia
Distance from station: NW 1258km
Updated: 26/06/2017 22:00
Clear
Clear
 Wind from SSW
Wind: SSW 7 km/h
Temperature: 14°C
Dew Point: 11°C
Humidity: 82%
Barometer: 1019 hPa
Clouds: Clear
Visibility: 10 km
2017/06/26 10:00 YSNF 261000Z AUTO 21004KT 9999 // NCD 14/11 Q1019